Main page
METAR-TAF:

METAR-TAF

Airports :

Córdoba, Spain

Córdoba Airport

latitude: 37-51N, longitude: 004-51W, elevation: 90 m

Current weather observation

The report was made 37 minutes ago, at 04:00 UTC
Wind 3 kt from the Southwest, varying between South/Southwest and West
Temperature 15°C
Humidity 94%
Pressure 1016 hPa
Visibility: 8000 m

METAR: LEBA 270400Z AUTO 23003KT 200V260 8000 NCD 15/14 Q1016

Time: 06:37 (04:37 UTC)

Forecast

The report was made 2 hours and 37 minutes ago, at 02:00 UTC
Forecast valid from 27 at 03 UTC to 27 at 12 UTC
Wind 4 kt from the Southwest
Visibility 10 km or more
no clouds below 1500 m and no cumulonimbus
Temporary
from 27 at 03 UTC to 27 at 09 UTC
Visibility: 4000 m
Broken clouds at a height of 800 ft
mist

TAF: LEBA 270200Z 2703/2712 23004KT CAVOK TEMPO 2703/2709 4000 BR BKN008

Weather observations and forecasts of more than 4000 airports (METAR and TAF reports).

The available stations are represented by yellow and red dots on the map.

Hover mouse over dot to see the name of the station.

Then click to see weather observations and forecasts.

To change the map : click on the green buttons with a black cross to zoom in, on the green button with a dash to zoom out, or on the green arrows for adjacent maps.


METAR-TAF: